createdAt,value
2023-01-26T00:04:24.206Z,1007.03
2023-01-26T00:09:28.392Z,1006.93
2023-01-26T00:14:32.533Z,1006.84
2023-01-26T00:19:36.689Z,1006.69
2023-01-26T00:24:40.868Z,1006.68
2023-01-26T00:29:45.061Z,1006.59
2023-01-26T00:34:49.232Z,1006.53
2023-01-26T00:39:53.391Z,1006.38
2023-01-26T00:44:57.552Z,1006.28
2023-01-26T00:50:01.708Z,1006.29
2023-01-26T00:55:05.861Z,1006.21
2023-01-26T01:00:10.338Z,1006.19
2023-01-26T01:05:14.232Z,1006.19
2023-01-26T01:10:18.365Z,1006.12
2023-01-26T01:15:22.554Z,1006.09
2023-01-26T01:20:27.182Z,1005.91
2023-01-26T01:25:30.860Z,1005.89
2023-01-26T01:30:35.054Z,1005.76
2023-01-26T01:35:39.186Z,1005.64
2023-01-26T01:40:43.392Z,1005.60
2023-01-26T01:45:45.656Z,1005.52
2023-01-26T01:50:47.957Z,1005.54
2023-01-26T01:55:52.115Z,1005.41
2023-01-26T02:00:54.373Z,1005.25
2023-01-26T02:05:58.563Z,1005.18
2023-01-26T02:11:02.699Z,1005.09
2023-01-26T02:16:06.914Z,1004.96
2023-01-26T02:21:11.065Z,1004.91
2023-01-26T02:26:15.209Z,1004.75
2023-01-26T02:31:19.493Z,1004.80
2023-01-26T02:36:23.563Z,1004.66
2023-01-26T02:41:27.699Z,1004.59
2023-01-26T02:46:31.966Z,1004.62
2023-01-26T02:51:36.015Z,1004.62
2023-01-26T02:56:40.186Z,1004.53
2023-01-26T03:01:44.468Z,1004.39
2023-01-26T03:06:48.546Z,1004.34
2023-01-26T03:11:52.673Z,1004.30
2023-01-26T03:16:56.844Z,1004.34
2023-01-26T03:22:01.058Z,1004.27
2023-01-26T03:27:05.351Z,1004.24
2023-01-26T03:32:09.356Z,1004.14
2023-01-26T03:37:13.544Z,1004.09
2023-01-26T03:42:17.711Z,1004.06
2023-01-26T03:47:19.957Z,1004.06
2023-01-26T03:52:24.142Z,1003.94
2023-01-26T03:57:26.402Z,1004.00
2023-01-26T04:02:30.567Z,1003.93
2023-01-26T04:07:34.737Z,1003.90
2023-01-26T04:12:38.934Z,1003.90
2023-01-26T04:17:43.104Z,1003.82
2023-01-26T04:22:47.268Z,1003.77
2023-01-26T04:27:51.420Z,1003.72
2023-01-26T04:32:55.556Z,1003.66
2023-01-26T04:37:59.764Z,1003.68
2023-01-26T04:43:03.916Z,1003.70
2023-01-26T04:48:08.107Z,1003.60
2023-01-26T04:53:12.224Z,1003.58
2023-01-26T04:58:16.405Z,1003.52
2023-01-26T05:03:20.589Z,1003.55
2023-01-26T05:08:24.761Z,1003.58
2023-01-26T05:13:28.929Z,1003.48
2023-01-26T05:18:33.120Z,1003.63
2023-01-26T05:23:37.249Z,1003.56
2023-01-26T05:28:41.417Z,1003.53
2023-01-26T05:33:45.598Z,1003.53
2023-01-26T05:38:49.788Z,1003.53
2023-01-26T05:43:52.043Z,1003.54
2023-01-26T05:48:56.197Z,1003.51
2023-01-26T05:53:58.444Z,1003.53
2023-01-26T05:59:02.668Z,1003.58
2023-01-26T06:04:06.854Z,1003.57
2023-01-26T06:09:10.954Z,1003.56
2023-01-26T06:14:15.137Z,1003.62
2023-01-26T06:19:19.296Z,1003.58
2023-01-26T06:24:23.603Z,1003.63
2023-01-26T06:29:27.621Z,1003.63
2023-01-26T06:34:31.787Z,1003.65
2023-01-26T06:39:35.973Z,1003.53
2023-01-26T06:44:40.149Z,1003.56
2023-01-26T06:49:44.294Z,1003.63
2023-01-26T06:54:48.478Z,1003.60
2023-01-26T06:59:52.637Z,1003.59
2023-01-26T07:04:56.788Z,1003.47
2023-01-26T07:10:00.959Z,1003.47
2023-01-26T07:15:05.115Z,1003.48
2023-01-26T07:20:09.520Z,1003.47
2023-01-26T07:25:13.487Z,1003.53
2023-01-26T07:30:17.677Z,1003.51
2023-01-26T07:35:23.891Z,1003.47
2023-01-26T07:40:24.098Z,1003.44
2023-01-26T07:45:28.261Z,1003.42
2023-01-26T07:50:32.429Z,1003.39
2023-01-26T07:55:36.563Z,1003.39
2023-01-26T08:00:40.791Z,1003.36
2023-01-26T08:05:44.923Z,1003.41
2023-01-26T08:10:49.089Z,1003.41
2023-01-26T08:15:53.229Z,1003.44
2023-01-26T08:20:57.386Z,1003.42
2023-01-26T08:26:01.680Z,1003.53
2023-01-26T08:31:05.776Z,1003.59
2023-01-26T08:36:09.912Z,1003.59
2023-01-26T08:41:14.054Z,1003.51
2023-01-26T08:46:18.273Z,1003.60
2023-01-26T08:51:22.382Z,1003.62
2023-01-26T08:56:26.571Z,1003.61
2023-01-26T09:01:30.816Z,1003.65
2023-01-26T09:06:34.894Z,1003.59
2023-01-26T09:11:39.066Z,1003.61
2023-01-26T09:16:43.255Z,1003.48
2023-01-26T09:21:47.513Z,1003.56
2023-01-26T09:26:49.646Z,1003.53
2023-01-26T09:31:53.994Z,1003.55
2023-01-26T09:36:56.171Z,1003.66
2023-01-26T09:42:00.319Z,1003.64
2023-01-26T09:47:02.554Z,1003.52
2023-01-26T09:52:06.721Z,1003.43
2023-01-26T09:57:10.907Z,1003.44
2023-01-26T10:02:15.109Z,1003.29
2023-01-26T10:07:19.227Z,1003.30
2023-01-26T10:12:23.387Z,1003.34
2023-01-26T10:17:27.585Z,1003.31
2023-01-26T10:22:31.715Z,1003.26
2023-01-26T10:27:35.921Z,1003.13
2023-01-26T10:32:40.069Z,1003.11
2023-01-26T10:37:44.219Z,1003.08
2023-01-26T10:42:48.360Z,1003.02
2023-01-26T10:47:52.564Z,1002.99
2023-01-26T10:52:56.703Z,1002.92
2023-01-26T10:58:00.871Z,1002.95
2023-01-26T11:03:05.118Z,1002.91
2023-01-26T11:08:09.232Z,1002.87
2023-01-26T11:13:13.372Z,1002.83
2023-01-26T11:18:17.564Z,1002.75
2023-01-26T11:23:21.730Z,1002.63
2023-01-26T11:28:25.861Z,1002.70
2023-01-26T11:33:28.191Z,1002.60
2023-01-26T11:38:32.371Z,1002.59
2023-01-26T11:43:34.637Z,1002.41
2023-01-26T11:48:38.762Z,1002.29
2023-01-26T11:53:41.175Z,1002.44
2023-01-26T11:58:45.218Z,1002.36
2023-01-26T12:03:49.338Z,1002.47
2023-01-26T12:08:53.529Z,1002.34
2023-01-26T12:13:57.710Z,1002.34
2023-01-26T12:19:10.328Z,1002.28
2023-01-26T12:24:06.040Z,1002.16
2023-01-26T12:34:14.389Z,1001.95
2023-01-26T12:39:18.523Z,1001.89
2023-01-26T12:44:22.654Z,1001.86
2023-01-26T12:49:26.952Z,1001.79
2023-01-26T12:54:31.053Z,1001.77
2023-01-26T12:59:47.311Z,1001.60
2023-01-26T13:04:39.364Z,1001.57
2023-01-26T13:09:43.516Z,1001.61
2023-01-26T13:14:47.666Z,1001.64
2023-01-26T13:19:51.812Z,1001.68
2023-01-26T13:24:56.077Z,1001.66
2023-01-26T13:30:00.225Z,1001.67
2023-01-26T13:35:05.419Z,1001.65
2023-01-26T13:40:06.619Z,1001.63
2023-01-26T13:45:11.121Z,1001.62
2023-01-26T13:50:14.928Z,1001.58
2023-01-26T13:55:19.084Z,1001.60
2023-01-26T14:00:23.277Z,1001.55
2023-01-26T14:05:27.435Z,1001.66
2023-01-26T14:10:31.610Z,1001.67
2023-01-26T14:15:35.807Z,1001.63
2023-01-26T14:20:39.924Z,1001.60
2023-01-26T14:25:44.092Z,1001.50
2023-01-26T14:30:48.415Z,1001.54
2023-01-26T14:35:52.421Z,1001.52
2023-01-26T14:40:56.599Z,1001.54
2023-01-26T14:46:00.750Z,1001.51
2023-01-26T14:51:04.942Z,1001.55
2023-01-26T14:56:09.089Z,1001.60
2023-01-26T15:01:13.337Z,1001.64
2023-01-26T15:06:17.421Z,1001.62
2023-01-26T15:11:21.568Z,1001.72
2023-01-26T15:16:25.940Z,1001.68
2023-01-26T15:21:28.030Z,1001.65
2023-01-26T15:26:32.176Z,1001.75
2023-01-26T15:31:34.567Z,1001.77
2023-01-26T15:36:38.637Z,1001.74
2023-01-26T15:41:40.897Z,1001.64
2023-01-26T15:46:45.123Z,1001.65
2023-01-26T15:51:49.237Z,1001.52
2023-01-26T15:56:53.364Z,1001.46
2023-01-26T16:01:57.583Z,1001.47
2023-01-26T16:07:01.759Z,1001.44
2023-01-26T16:12:05.882Z,1001.34
2023-01-26T16:17:10.065Z,1001.41
2023-01-26T16:22:14.225Z,1001.48
2023-01-26T16:27:18.411Z,1001.45
2023-01-26T16:32:22.561Z,1001.48
2023-01-26T16:37:26.719Z,1001.47
2023-01-26T16:42:30.861Z,1001.41
2023-01-26T16:47:35.069Z,1001.49
2023-01-26T16:52:39.213Z,1001.52
2023-01-26T16:57:43.417Z,1001.50
2023-01-26T17:02:47.574Z,1001.51
2023-01-26T17:07:51.706Z,1001.48
2023-01-26T17:12:55.869Z,1001.26
2023-01-26T17:18:00.042Z,1001.26
2023-01-26T17:23:04.195Z,1001.33
2023-01-26T17:28:06.458Z,1001.29
2023-01-26T17:33:10.659Z,1001.21
2023-01-26T17:38:12.914Z,1001.26
2023-01-26T17:43:17.116Z,1001.23
2023-01-26T17:48:21.242Z,1001.24
2023-01-26T17:53:25.444Z,1001.20
2023-01-26T17:58:29.569Z,1001.25
2023-01-26T18:03:33.738Z,1001.24
2023-01-26T18:08:37.910Z,1001.28
2023-01-26T18:13:42.083Z,1001.31
2023-01-26T18:18:46.246Z,1001.21
2023-01-26T18:23:50.582Z,1001.34
2023-01-26T18:28:54.574Z,1001.27
2023-01-26T18:33:58.733Z,1001.33
2023-01-26T18:39:02.888Z,1001.33
2023-01-26T18:44:07.119Z,1001.34
2023-01-26T18:49:11.211Z,1001.31
2023-01-26T18:54:15.372Z,1001.26
2023-01-26T18:59:19.567Z,1001.29
2023-01-26T19:04:23.732Z,1001.29
2023-01-26T19:09:27.899Z,1001.21
2023-01-26T19:14:32.015Z,1001.29
2023-01-26T19:19:36.216Z,1001.23
2023-01-26T19:24:38.490Z,1001.29
2023-01-26T19:29:42.656Z,1001.23
2023-01-26T19:34:44.917Z,1001.22
2023-01-26T19:39:49.117Z,1001.13
2023-01-26T19:44:53.270Z,1001.17
2023-01-26T19:49:57.425Z,1001.20
2023-01-26T19:55:01.581Z,1001.03
2023-01-26T20:00:05.764Z,1001.06
2023-01-26T20:05:10.244Z,1001.02
2023-01-26T20:10:14.086Z,1001.04
2023-01-26T20:15:18.286Z,1001.03
2023-01-26T20:20:22.434Z,1001.04
2023-01-26T20:25:26.686Z,1001.04
2023-01-26T20:30:30.727Z,1000.96
2023-01-26T20:35:34.902Z,1000.98
2023-01-26T20:40:39.226Z,1000.89
2023-01-26T20:45:43.286Z,1000.92
2023-01-26T20:50:47.487Z,1000.80
2023-01-26T20:55:51.614Z,1000.85
2023-01-26T21:00:55.771Z,1001.00
2023-01-26T21:06:00.043Z,1001.04
2023-01-26T21:11:04.110Z,1000.97
2023-01-26T21:16:08.252Z,1001.03
2023-01-26T21:26:14.752Z,1000.93
2023-01-26T21:31:17.058Z,1000.91
2023-01-26T21:36:21.102Z,1000.93
2023-01-26T21:41:23.378Z,1000.93
2023-01-26T21:46:27.573Z,1000.97
2023-01-26T21:51:31.717Z,1000.92
2023-01-26T21:56:35.883Z,1000.97
2023-01-26T22:01:40.057Z,1000.94
2023-01-26T22:06:44.202Z,1000.92
2023-01-26T22:11:48.390Z,1000.94
2023-01-26T22:16:52.563Z,1001.01
2023-01-26T22:21:56.693Z,1000.97
2023-01-26T22:27:00.869Z,1001.14
2023-01-26T22:32:05.132Z,1001.04
2023-01-26T22:37:09.176Z,1001.07
2023-01-26T22:42:13.385Z,1001.06
2023-01-26T22:47:17.505Z,1001.07
2023-01-26T22:52:21.656Z,1001.15
2023-01-26T22:57:25.863Z,1001.11
2023-01-26T23:02:30.056Z,1001.14
2023-01-26T23:07:34.224Z,1001.12
2023-01-26T23:12:38.369Z,1001.18
2023-01-26T23:17:42.516Z,1001.13
2023-01-26T23:22:46.695Z,1001.16
2023-01-26T23:27:48.944Z,1001.02
2023-01-26T23:32:53.130Z,1001.13
2023-01-26T23:37:55.411Z,1001.16
2023-01-26T23:43:15.451Z,1001.12
2023-01-26T23:48:03.719Z,1001.10
2023-01-26T23:53:07.887Z,1001.12
2023-01-26T23:58:12.033Z,1001.13
